createdAt,value
2023-01-13T00:00:57.383Z,100022.25
2023-01-13T00:03:43.176Z,100023.09
2023-01-13T00:06:29.292Z,100017.44
2023-01-13T00:09:14.585Z,100018.97
2023-01-13T00:11:59.398Z,100021.00
2023-01-13T00:14:44.314Z,100015.84
2023-01-13T00:17:29.674Z,100007.06
2023-01-13T00:20:15.021Z,99999.03
2023-01-13T00:23:01.431Z,99999.44
2023-01-13T00:25:46.657Z,99994.22
2023-01-13T00:28:32.795Z,99999.72
2023-01-13T00:31:20.221Z,100008.66
2023-01-13T00:34:05.476Z,100012.22
2023-01-13T00:36:50.759Z,100023.16
2023-01-13T00:39:36.030Z,100029.88
2023-01-13T00:42:39.461Z,100055.91
2023-01-13T00:45:24.701Z,100059.66
2023-01-13T00:48:09.951Z,100078.94
2023-01-13T00:50:56.370Z,100066.50
2023-01-13T00:53:44.513Z,100074.84
2023-01-13T00:56:39.842Z,100086.13
2023-01-13T00:59:25.596Z,100094.41
2023-01-13T01:02:10.612Z,100091.59
2023-01-13T01:04:55.684Z,100075.25
2023-01-13T01:07:40.725Z,100044.81
2023-01-13T01:10:26.097Z,100049.13
2023-01-13T01:13:14.794Z,100015.16
2023-01-13T01:16:00.226Z,100019.06
2023-01-13T01:18:47.366Z,100011.75
2023-01-13T01:21:35.232Z,100021.47
2023-01-13T01:24:21.271Z,100029.56
2023-01-13T01:27:06.547Z,100027.72
2023-01-13T01:29:51.794Z,100028.72
2023-01-13T01:32:36.925Z,100028.50
2023-01-13T01:35:22.183Z,100041.09
2023-01-13T01:38:07.261Z,100046.84
2023-01-13T01:40:52.476Z,100053.16
2023-01-13T01:44:02.714Z,100069.69
2023-01-13T01:46:48.257Z,100078.13
2023-01-13T01:49:36.411Z,100079.94
2023-01-13T01:52:28.513Z,100086.22
2023-01-13T01:55:18.109Z,100055.72
2023-01-13T01:58:21.882Z,100069.97
2023-01-13T02:01:06.987Z,100071.94
2023-01-13T02:04:03.844Z,100060.06
2023-01-13T02:06:50.093Z,100048.03
2023-01-13T02:09:35.886Z,100047.81
2023-01-13T02:12:32.336Z,100051.97
2023-01-13T02:15:26.171Z,100052.78
2023-01-13T02:18:26.963Z,100003.09
2023-01-13T02:21:27.961Z,100016.66
2023-01-13T02:24:47.330Z,100034.50
2023-01-13T02:27:51.794Z,100037.78
2023-01-13T02:31:03.246Z,100043.59
2023-01-13T02:34:11.871Z,100039.44
2023-01-13T02:37:06.866Z,100042.91
2023-01-13T02:40:04.557Z,100045.72
2023-01-13T02:43:33.073Z,100047.03
2023-01-13T02:46:25.402Z,100034.31
2023-01-13T02:49:18.041Z,100029.38
2023-01-13T02:52:12.910Z,100021.97
2023-01-13T02:55:04.347Z,100037.47
2023-01-13T02:57:52.648Z,100039.78
2023-01-13T03:00:38.112Z,100028.88
2023-01-13T03:03:23.350Z,100038.47
2023-01-13T03:06:20.153Z,100035.50
2023-01-13T03:09:29.715Z,100034.16
2023-01-13T03:12:30.713Z,100046.56
2023-01-13T03:15:47.715Z,100023.59
2023-01-13T03:19:05.775Z,100007.75
2023-01-13T03:21:57.040Z,99998.53
2023-01-13T03:25:09.611Z,100004.97
2023-01-13T03:28:05.555Z,100003.81
2023-01-13T03:30:58.694Z,99993.38
2023-01-13T03:33:55.087Z,100006.94
2023-01-13T03:36:41.583Z,100011.53
2023-01-13T03:39:31.068Z,100011.88
2023-01-13T03:42:23.811Z,100011.53
2023-01-13T03:45:15.181Z,100010.91
2023-01-13T03:48:05.663Z,100005.44
2023-01-13T03:50:53.905Z,100007.59
2023-01-13T03:53:45.570Z,100009.72
2023-01-13T03:56:42.684Z,100028.22
2023-01-13T03:59:33.430Z,100020.47
2023-01-13T04:02:33.136Z,100014.03
2023-01-13T04:05:18.694Z,100011.88
2023-01-13T04:08:22.403Z,100008.75
2023-01-13T04:11:15.276Z,100005.44
2023-01-13T04:14:03.277Z,100004.59
2023-01-13T04:16:49.170Z,100008.38
2023-01-13T04:19:34.456Z,100009.50
2023-01-13T04:22:19.441Z,100009.50
2023-01-13T04:25:05.350Z,100013.78
2023-01-13T04:27:50.383Z,100015.25
2023-01-13T04:30:36.123Z,100015.25
2023-01-13T04:33:21.363Z,100009.16
2023-01-13T04:36:06.814Z,100006.34
2023-01-13T04:38:51.750Z,100010.78
2023-01-13T04:41:55.840Z,100015.06
2023-01-13T04:44:40.989Z,100017.22
2023-01-13T04:47:26.242Z,100019.97
2023-01-13T04:50:11.605Z,100033.47
2023-01-13T04:52:56.637Z,100030.16
2023-01-13T04:55:41.659Z,100028.34
2023-01-13T04:58:26.811Z,100039.88
2023-01-13T05:01:11.784Z,100030.03
2023-01-13T05:03:57.453Z,100011.06
2023-01-13T05:06:42.849Z,100014.66
2023-01-13T05:09:27.712Z,100014.69
2023-01-13T05:12:31.551Z,100003.81
2023-01-13T05:15:35.247Z,100009.28
2023-01-13T05:18:20.732Z,100011.94
2023-01-13T05:21:25.765Z,99999.19
2023-01-13T05:24:30.342Z,100004.44
2023-01-13T05:27:15.372Z,100013.19
2023-01-13T05:30:00.571Z,100009.59
2023-01-13T05:32:46.000Z,100006.66
2023-01-13T05:35:31.183Z,100008.47
2023-01-13T05:38:17.864Z,100013.56
2023-01-13T05:41:21.607Z,100011.41
2023-01-13T05:44:06.621Z,100017.31
2023-01-13T05:46:51.682Z,100011.91
2023-01-13T05:49:36.758Z,100020.53
2023-01-13T05:52:21.572Z,100024.31
2023-01-13T05:55:06.827Z,100019.88
2023-01-13T05:57:52.136Z,100018.22
2023-01-13T06:00:37.373Z,100029.97
2023-01-13T06:03:22.319Z,100025.69
2023-01-13T06:06:08.796Z,100031.75
2023-01-13T06:08:53.507Z,100052.72
2023-01-13T06:11:38.668Z,100059.31
2023-01-13T06:14:23.423Z,100059.16
2023-01-13T06:17:14.103Z,100066.59
2023-01-13T06:19:58.832Z,100060.00
2023-01-13T06:22:46.899Z,100056.53
2023-01-13T06:25:31.699Z,100061.50
2023-01-13T06:28:16.789Z,100054.09
2023-01-13T06:31:06.007Z,100067.63
2023-01-13T06:33:56.137Z,100082.16
2023-01-13T06:36:46.394Z,100083.03
2023-01-13T06:39:31.927Z,100081.53
2023-01-13T06:42:35.316Z,100077.88
2023-01-13T06:45:22.376Z,100089.13
2023-01-13T06:48:07.472Z,100075.75
2023-01-13T06:50:52.376Z,100077.91
2023-01-13T06:53:37.307Z,100087.28
2023-01-13T06:56:22.312Z,100094.41
2023-01-13T06:59:07.476Z,100096.38
2023-01-13T07:01:52.410Z,100109.94
2023-01-13T07:04:37.266Z,100096.56
2023-01-13T07:07:22.160Z,100110.09
2023-01-13T07:10:12.997Z,100120.63
2023-01-13T07:13:19.237Z,100113.53
2023-01-13T07:16:06.519Z,100125.03
2023-01-13T07:18:51.498Z,100122.03
2023-01-13T07:21:36.613Z,100125.50
2023-01-13T07:24:22.449Z,100128.63
2023-01-13T07:27:07.616Z,100130.25
2023-01-13T07:29:52.292Z,100133.47
2023-01-13T07:32:37.403Z,100126.22
2023-01-13T07:35:23.387Z,100139.75
2023-01-13T07:38:08.359Z,100150.97
2023-01-13T07:40:53.609Z,100154.50
2023-01-13T07:43:38.348Z,100142.38
2023-01-13T07:46:23.606Z,100146.28
2023-01-13T07:49:09.355Z,100154.63
2023-01-13T07:51:54.439Z,100139.78
2023-01-13T07:54:41.196Z,100146.19
2023-01-13T07:57:26.444Z,100153.56
2023-01-13T08:00:12.988Z,100155.00
2023-01-13T08:03:00.240Z,100167.13
2023-01-13T08:05:45.646Z,100159.06
2023-01-13T08:08:30.796Z,100164.28
2023-01-13T08:11:15.680Z,100155.91
2023-01-13T08:14:01.798Z,100166.44
2023-01-13T08:16:46.460Z,100170.59
2023-01-13T08:19:31.519Z,100170.50
2023-01-13T08:22:16.600Z,100175.41
2023-01-13T08:25:02.058Z,100169.56
2023-01-13T08:27:49.713Z,100171.94
2023-01-13T08:30:34.524Z,100169.91
2023-01-13T08:33:19.626Z,100173.19
2023-01-13T08:36:06.956Z,100176.09
2023-01-13T08:38:52.068Z,100173.44
2023-01-13T08:41:55.141Z,100186.56
2023-01-13T08:44:40.404Z,100184.31
2023-01-13T08:47:27.773Z,100194.78
2023-01-13T08:50:13.240Z,100195.56
2023-01-13T08:52:57.930Z,100208.22
2023-01-13T08:55:42.868Z,100205.75
2023-01-13T08:58:28.133Z,100215.09
2023-01-13T09:01:18.350Z,100212.50
2023-01-13T09:04:03.497Z,100225.38
2023-01-13T09:06:49.750Z,100217.44
2023-01-13T09:09:34.787Z,100222.53
2023-01-13T09:12:38.594Z,100205.03
2023-01-13T09:15:23.778Z,100217.16
2023-01-13T09:18:09.352Z,100210.06
2023-01-13T09:20:54.215Z,100207.25
2023-01-13T09:23:39.004Z,100211.03
2023-01-13T09:26:23.962Z,100212.69
2023-01-13T09:29:08.979Z,100213.00
2023-01-13T09:31:53.952Z,100212.69
2023-01-13T09:34:57.986Z,100211.22
2023-01-13T09:37:42.861Z,100209.41
2023-01-13T09:40:27.782Z,100219.66
2023-01-13T09:43:44.357Z,100223.13
2023-01-13T09:46:47.559Z,100220.31
2023-01-13T09:49:38.861Z,100213.94
2023-01-13T09:52:27.017Z,100218.25
2023-01-13T09:55:17.426Z,100216.00
2023-01-13T09:58:13.033Z,100214.16
2023-01-13T10:01:06.240Z,100204.38
2023-01-13T10:03:51.414Z,100216.31
2023-01-13T10:06:42.441Z,100214.59
2023-01-13T10:09:33.764Z,100219.97
2023-01-13T10:12:42.789Z,100218.91
2023-01-13T10:15:27.827Z,100193.38
2023-01-13T10:18:25.131Z,100220.72
2023-01-13T10:21:47.890Z,100204.69
2023-01-13T10:24:58.858Z,100202.63
2023-01-13T10:27:49.163Z,100212.81
2023-01-13T10:30:38.697Z,100207.91
2023-01-13T10:33:28.441Z,100198.34
2023-01-13T10:36:14.928Z,100211.25
2023-01-13T10:39:16.655Z,100210.41
2023-01-13T10:42:03.782Z,100213.41
2023-01-13T10:44:55.763Z,100213.59
2023-01-13T10:47:40.994Z,100229.03
2023-01-13T10:50:29.035Z,100233.75
2023-01-13T10:53:25.018Z,100229.13
2023-01-13T10:56:16.794Z,100229.66
2023-01-13T10:59:24.546Z,100240.44
2023-01-13T11:02:29.399Z,100238.66
2023-01-13T11:05:24.354Z,100210.19
2023-01-13T11:08:18.548Z,100238.47
2023-01-13T11:11:03.466Z,100228.34
2023-01-13T11:14:12.215Z,100252.16
2023-01-13T11:17:01.683Z,100228.47
2023-01-13T11:19:58.031Z,100243.53
2023-01-13T11:22:47.759Z,100249.53
2023-01-13T11:25:42.798Z,100247.19
2023-01-13T11:28:27.823Z,100248.03
2023-01-13T11:31:27.772Z,100247.00
2023-01-13T11:34:26.733Z,100251.50
2023-01-13T11:37:31.114Z,100263.56
2023-01-13T11:40:36.896Z,100267.22
2023-01-13T11:43:36.249Z,100259.28
2023-01-13T11:46:26.807Z,100273.41
2023-01-13T11:49:30.879Z,100272.88
2023-01-13T11:52:18.871Z,100267.63
2023-01-13T11:55:30.609Z,100271.00
2023-01-13T11:58:49.442Z,100248.53
2023-01-13T12:02:05.031Z,100265.78
2023-01-13T12:05:18.957Z,100281.28
2023-01-13T12:08:19.431Z,100285.28
2023-01-13T12:11:07.344Z,100283.28
2023-01-13T12:14:12.967Z,100294.06
2023-01-13T12:17:01.195Z,100294.88
2023-01-13T12:19:49.913Z,100302.13
2023-01-13T12:22:37.087Z,100309.56
2023-01-13T12:25:36.895Z,100303.13
2023-01-13T12:28:30.713Z,100289.91
2023-01-13T12:31:18.894Z,100285.97
2023-01-13T12:34:13.576Z,100296.03
2023-01-13T12:37:09.877Z,100289.75
2023-01-13T12:40:38.650Z,100286.09
2023-01-13T12:43:43.346Z,100281.16
2023-01-13T12:46:28.121Z,100281.47
2023-01-13T12:49:22.085Z,100287.09
2023-01-13T12:52:07.725Z,100280.97
2023-01-13T12:54:53.644Z,100294.38
2023-01-13T12:57:40.073Z,100284.47
2023-01-13T13:00:45.589Z,100283.81
2023-01-13T13:03:35.369Z,100290.06
2023-01-13T13:06:23.883Z,100290.72
2023-01-13T13:09:32.678Z,100289.56
2023-01-13T13:12:51.595Z,100306.44
2023-01-13T13:15:37.103Z,100312.97
2023-01-13T13:18:28.153Z,100296.13
2023-01-13T13:21:13.006Z,100310.13
2023-01-13T13:24:03.012Z,100312.88
2023-01-13T13:26:48.254Z,100313.84
2023-01-13T13:29:49.770Z,100311.88
2023-01-13T13:33:00.188Z,100326.03
2023-01-13T13:35:52.099Z,100329.50
2023-01-13T13:39:24.955Z,100337.41
2023-01-13T13:42:36.854Z,100359.25
2023-01-13T13:45:42.971Z,100368.94
2023-01-13T13:48:33.758Z,100368.28
2023-01-13T13:51:39.160Z,100376.69
2023-01-13T13:54:25.484Z,100389.31
2023-01-13T13:57:22.654Z,100393.09
2023-01-13T14:00:21.415Z,100404.13
2023-01-13T14:03:18.385Z,100417.91
2023-01-13T14:06:05.759Z,100430.75
2023-01-13T14:08:50.819Z,100441.78
2023-01-13T14:11:36.286Z,100443.72
2023-01-13T14:14:21.485Z,100443.19
2023-01-13T14:17:06.369Z,100458.56
2023-01-13T14:20:05.034Z,100465.94
2023-01-13T14:22:52.901Z,100471.56
2023-01-13T14:25:45.676Z,100469.09
2023-01-13T14:28:41.711Z,100474.66
2023-01-13T14:31:27.342Z,100475.34
2023-01-13T14:34:30.530Z,100484.75
2023-01-13T14:37:35.087Z,100479.19
2023-01-13T14:40:36.114Z,100482.66
2023-01-13T14:43:24.384Z,100484.81
2023-01-13T14:46:09.485Z,100483.03
2023-01-13T14:49:01.281Z,100485.75
2023-01-13T14:51:46.064Z,100480.19
2023-01-13T14:54:46.107Z,100489.31
2023-01-13T14:57:32.828Z,100482.06
2023-01-13T15:00:22.071Z,100493.16
2023-01-13T15:03:08.124Z,100490.06
2023-01-13T15:05:53.481Z,100503.59
2023-01-13T15:08:39.566Z,100498.69
2023-01-13T15:11:27.979Z,100515.56
2023-01-13T15:14:23.058Z,100511.28
2023-01-13T15:17:17.308Z,100524.25
2023-01-13T15:20:03.082Z,100521.44
2023-01-13T15:22:48.653Z,100530.50
2023-01-13T15:25:44.149Z,100530.28
2023-01-13T15:28:31.817Z,100538.88
2023-01-13T15:31:17.064Z,100555.56
2023-01-13T15:34:01.897Z,100559.88
2023-01-13T15:36:46.927Z,100548.41
2023-01-13T15:39:31.892Z,100552.53
2023-01-13T15:42:35.785Z,100554.91
2023-01-13T15:45:39.704Z,100566.00
2023-01-13T15:48:27.808Z,100567.63
2023-01-13T15:51:13.726Z,100562.91
2023-01-13T15:54:02.312Z,100576.47
2023-01-13T15:56:47.250Z,100563.53
2023-01-13T15:59:33.730Z,100575.22
2023-01-13T16:02:19.084Z,100579.22
2023-01-13T16:05:05.261Z,100580.88
2023-01-13T16:07:50.320Z,100581.84
2023-01-13T16:10:35.251Z,100583.22
2023-01-13T16:13:20.186Z,100580.97
2023-01-13T16:16:18.329Z,100584.56
2023-01-13T16:19:03.306Z,100583.06
2023-01-13T16:21:48.470Z,100596.56
2023-01-13T16:24:33.355Z,100597.09
2023-01-13T16:27:21.486Z,100598.91
2023-01-13T16:30:07.566Z,100599.06
2023-01-13T16:32:52.769Z,100622.66
2023-01-13T16:35:37.753Z,100607.28
2023-01-13T16:38:43.030Z,100612.00
2023-01-13T16:41:28.041Z,100627.00
2023-01-13T16:44:13.228Z,100633.00
2023-01-13T16:46:58.116Z,100638.56
2023-01-13T16:49:43.444Z,100643.00
2023-01-13T16:52:28.608Z,100650.19
2023-01-13T16:55:13.470Z,100659.78
2023-01-13T16:57:58.447Z,100661.31
2023-01-13T17:00:46.636Z,100666.94
2023-01-13T17:03:35.664Z,100682.50
2023-01-13T17:06:24.764Z,100688.50
2023-01-13T17:09:19.662Z,100687.09
2023-01-13T17:12:04.624Z,100691.41
2023-01-13T17:14:49.804Z,100699.34
2023-01-13T17:17:34.557Z,100700.47
2023-01-13T17:20:19.594Z,100712.53
2023-01-13T17:23:04.629Z,100709.50
2023-01-13T17:25:49.447Z,100711.03
2023-01-13T17:28:34.589Z,100710.00
2023-01-13T17:31:19.943Z,100704.63
2023-01-13T17:34:05.343Z,100706.31
2023-01-13T17:36:50.425Z,100712.53
2023-01-13T17:39:35.343Z,100718.38
2023-01-13T17:42:20.373Z,100726.00
2023-01-13T17:45:06.182Z,100732.63
2023-01-13T17:47:51.105Z,100728.06
2023-01-13T17:50:36.110Z,100731.84
2023-01-13T17:53:21.443Z,100732.63
2023-01-13T17:56:08.656Z,100731.91
2023-01-13T17:58:53.504Z,100728.81
2023-01-13T18:01:39.252Z,100742.28
2023-01-13T18:04:28.642Z,100738.06
2023-01-13T18:07:13.496Z,100738.63
2023-01-13T18:09:58.388Z,100742.09
2023-01-13T18:12:43.399Z,100749.88
2023-01-13T18:15:28.998Z,100750.72
2023-01-13T18:18:14.052Z,100761.16
2023-01-13T18:21:17.728Z,100755.59
2023-01-13T18:24:21.926Z,100763.66
2023-01-13T18:27:22.604Z,100768.47
2023-01-13T18:30:08.264Z,100778.91
2023-01-13T18:32:53.465Z,100771.09
2023-01-13T18:35:39.563Z,100776.94
2023-01-13T18:38:27.132Z,100788.00
2023-01-13T18:41:30.952Z,100787.34
2023-01-13T18:44:16.107Z,100791.66
2023-01-13T18:47:01.189Z,100785.91
2023-01-13T18:49:46.380Z,100794.97
2023-01-13T18:52:31.399Z,100796.47
2023-01-13T18:55:16.670Z,100806.09
2023-01-13T18:58:02.164Z,100811.88
2023-01-13T19:00:47.327Z,100805.25
2023-01-13T19:03:32.484Z,100802.88
2023-01-13T19:06:17.397Z,100804.84
2023-01-13T19:09:08.466Z,100813.19
2023-01-13T19:11:53.476Z,100819.69
2023-01-13T19:14:38.456Z,100827.09
2023-01-13T19:17:25.641Z,100839.75
2023-01-13T19:20:11.344Z,100838.63
2023-01-13T19:22:56.354Z,100843.53
2023-01-13T19:25:41.305Z,100853.09
2023-01-13T19:28:26.495Z,100851.16
2023-01-13T19:31:11.898Z,100851.44
2023-01-13T19:33:57.740Z,100843.09
2023-01-13T19:36:42.899Z,100841.44
2023-01-13T19:39:28.040Z,100846.16
2023-01-13T19:42:31.909Z,100840.31
2023-01-13T19:45:33.735Z,100854.47
2023-01-13T19:48:18.784Z,100848.63
2023-01-13T19:51:04.646Z,100863.25
2023-01-13T19:53:49.484Z,100862.81
2023-01-13T19:56:34.613Z,100869.47
2023-01-13T19:59:22.065Z,100868.25
2023-01-13T20:02:31.408Z,100874.34
2023-01-13T20:05:21.722Z,100866.84
2023-01-13T20:08:06.523Z,100879.50
2023-01-13T20:11:11.446Z,100881.72
2023-01-13T20:14:00.323Z,100881.06
2023-01-13T20:16:45.467Z,100886.03
2023-01-13T20:19:30.426Z,100894.09
2023-01-13T20:22:15.506Z,100897.31
2023-01-13T20:25:00.306Z,100897.19
2023-01-13T20:27:47.281Z,100907.63
2023-01-13T20:30:32.291Z,100906.78
2023-01-13T20:33:17.651Z,100910.81
2023-01-13T20:36:02.966Z,100908.28
2023-01-13T20:38:47.709Z,100903.31
2023-01-13T20:41:51.518Z,100907.03
2023-01-13T20:44:36.604Z,100913.56
2023-01-13T20:47:21.745Z,100915.53
2023-01-13T20:50:07.403Z,100921.09
2023-01-13T20:52:52.508Z,100932.34
2023-01-13T20:55:39.724Z,100937.06
2023-01-13T20:58:24.808Z,100939.16
2023-01-13T21:01:10.033Z,100946.63
2023-01-13T21:03:56.938Z,100952.38
2023-01-13T21:06:42.246Z,100959.69
2023-01-13T21:09:27.686Z,100948.44
2023-01-13T21:12:34.833Z,100955.00
2023-01-13T21:15:21.687Z,100960.13
2023-01-13T21:18:25.237Z,100968.63
2023-01-13T21:21:13.269Z,100962.22
2023-01-13T21:23:58.092Z,100962.91
2023-01-13T21:26:43.347Z,100963.06
2023-01-13T21:29:28.543Z,100961.94
2023-01-13T21:32:13.688Z,100969.44
2023-01-13T21:35:01.990Z,100954.84
2023-01-13T21:37:47.054Z,100962.78
2023-01-13T21:40:31.963Z,100954.56
2023-01-13T21:43:35.395Z,100964.59
2023-01-13T21:46:40.629Z,100967.06
2023-01-13T21:49:25.754Z,100972.34
2023-01-13T21:52:12.207Z,100981.09
2023-01-13T21:55:15.907Z,100977.22
2023-01-13T21:58:14.049Z,100984.31
2023-01-13T22:01:01.466Z,100985.44
2023-01-13T22:04:05.107Z,101002.22
2023-01-13T22:06:50.315Z,100999.19
2023-01-13T22:09:35.158Z,100994.00
2023-01-13T22:12:23.773Z,100997.38
2023-01-13T22:15:10.015Z,100999.75
2023-01-13T22:17:55.939Z,101013.34
2023-01-13T22:20:41.938Z,101016.53
2023-01-13T22:23:26.840Z,101014.88
2023-01-13T22:26:11.771Z,101013.34
2023-01-13T22:28:56.921Z,101014.59
2023-01-13T22:31:41.846Z,101011.53
2023-01-13T22:34:26.757Z,101021.53
2023-01-13T22:37:12.361Z,101026.50
2023-01-13T22:39:57.475Z,101029.56
2023-01-13T22:42:43.033Z,101025.13
2023-01-13T22:45:27.784Z,101020.38
2023-01-13T22:48:12.852Z,101021.06
2023-01-13T22:51:04.202Z,101034.13
2023-01-13T22:53:49.368Z,101043.97
2023-01-13T22:56:34.891Z,101047.47
2023-01-13T22:59:21.764Z,101051.19
2023-01-13T23:02:06.419Z,101050.63
2023-01-13T23:04:51.353Z,101052.31
2023-01-13T23:07:36.159Z,101061.75
2023-01-13T23:10:20.999Z,101059.22
2023-01-13T23:13:06.117Z,101055.50
2023-01-13T23:15:50.965Z,101052.31
2023-01-13T23:18:36.250Z,101056.06
2023-01-13T23:21:27.333Z,101053.13
2023-01-13T23:24:12.570Z,101055.91
2023-01-13T23:26:57.616Z,101053.25
2023-01-13T23:29:42.335Z,101068.13
2023-01-13T23:32:27.345Z,101071.47
2023-01-13T23:35:12.169Z,101078.53
2023-01-13T23:37:57.322Z,101078.94
2023-01-13T23:40:44.936Z,101085.63
2023-01-13T23:43:30.026Z,101085.63
2023-01-13T23:46:16.609Z,101090.94
2023-01-13T23:49:03.423Z,101080.81
2023-01-13T23:51:51.877Z,101086.50
2023-01-13T23:54:36.797Z,101086.63
2023-01-13T23:57:21.694Z,101085.09
